Time;durP1;ratioP1;P1;durP2;ratioP2;P2;SDS_P1;SDS_P2;PMS_P1;PMS_P2;Temp;Humidity;BMP_temperature;BMP_pressure;BME280_temperature;BME280_humidity;BME280_pressure;Samples;Min_cycle;Max_cycle;Signal;HPM_P1;HPM_P2
2022/01/11 00:00:01;;;;;;;41.13;22.50;;;;;;;-0.70;79.02;98575.38;6257390;28;20227;-74
2022/01/11 00:03:06;;;;;;;32.20;21.03;;;;;;;-0.73;79.66;98581.47;6234879;28;20232;-74
2022/01/11 00:06:21;;;;;;;37.67;21.80;;;;;;;-0.77;79.26;98580.66;6232387;28;20220;-74
2022/01/11 00:09:33;;;;;;;36.47;21.83;;;;;;;-0.77;79.29;98583.25;6250391;28;20234;-73
2022/01/11 00:12:35;;;;;;;39.67;22.27;;;;;;;-0.76;79.12;98595.34;6255711;28;20223;-73
2022/01/11 00:15:37;;;;;;;38.37;22.77;;;;;;;-0.77;79.38;98596.22;6251182;28;20282;-74
2022/01/11 00:18:39;;;;;;;38.87;23.23;;;;;;;-0.79;79.89;98594.53;6239078;28;20409;-73
2022/01/11 00:21:47;;;;;;;36.53;21.90;;;;;;;-0.79;80.58;98594.53;6255172;28;20223;-74
2022/01/11 00:24:49;;;;;;;41.63;24.17;;;;;;;-0.82;80.21;98602.41;6256364;28;20234;-74
2022/01/11 00:27:51;;;;;;;42.70;23.17;;;;;;;-0.84;80.16;98602.41;6254918;28;20234;-74
2022/01/11 00:30:54;;;;;;;41.23;23.73;;;;;;;-0.85;80.12;98608.47;6256251;28;20234;-73
2022/01/11 00:33:56;;;;;;;43.33;24.13;;;;;;;-0.87;80.34;98614.56;6253455;28;20223;-74
2022/01/11 00:36:58;;;;;;;41.17;24.07;;;;;;;-0.92;80.18;98619.88;6230960;28;20235;-73
2022/01/11 00:40:04;;;;;;;42.10;23.30;;;;;;;-0.96;80.03;98623.38;6244889;28;20239;-72
2022/01/11 00:43:06;;;;;;;41.97;23.70;;;;;;;-0.97;79.92;98628.59;6254896;28;20243;-73
2022/01/11 00:46:09;;;;;;;39.70;23.97;;;;;;;-1.06;79.20;98626.16;6257246;28;20633;-73
2022/01/11 00:49:11;;;;;;;40.60;23.70;;;;;;;-1.08;79.03;98631.38;6235776;28;20227;-74
2022/01/11 00:52:14;;;;;;;45.50;25.10;;;;;;;-1.17;79.03;98636.72;6232373;28;20243;-74
2022/01/11 00:55:17;;;;;;;42.97;24.83;;;;;;;-1.22;79.38;98636.84;6253703;28;20289;-74
2022/01/11 00:58:20;;;;;;;46.27;26.10;;;;;;;-1.28;78.87;98636.91;6254089;28;20832;-74
2022/01/11 01:01:22;;;;;;;44.23;25.97;;;;;;;-1.32;79.25;98642.19;6254200;28;20631;-72
2022/01/11 01:04:25;;;;;;;45.13;26.40;;;;;;;-1.37;78.60;98649.16;6255959;28;20667;-74
2022/01/11 01:07:27;;;;;;;48.53;26.70;;;;;;;-1.40;78.78;98650.09;6255377;28;20258;-73
2022/01/11 01:10:35;;;;;;;53.17;27.20;;;;;;;-1.41;78.93;98660.47;6252560;28;20219;-73
2022/01/11 01:13:38;;;;;;;45.27;26.77;;;;;;;-1.46;78.66;98657.09;6253739;28;20242;-73
2022/01/11 01:16:43;;;;;;;47.70;26.37;;;;;;;-1.50;78.53;98659.72;6243011;28;20707;-74
2022/01/11 01:20:12;;;;;;;49.93;26.07;;;;;;;-1.53;78.95;98664.13;6256656;28;20218;-73
2022/01/11 01:23:14;;;;;;;48.63;26.27;;;;;;;-1.55;78.51;98671.91;6252476;28;20230;-73
2022/01/11 01:26:17;;;;;;;50.50;26.63;;;;;;;-1.56;78.11;98661.56;6252890;28;20242;-74
2022/01/11 01:29:20;;;;;;;44.73;26.50;;;;;;;-1.58;78.54;98669.34;6254927;28;20270;-74
2022/01/11 01:32:24;;;;;;;41.60;25.67;;;;;;;-1.60;78.58;98683.22;6255037;28;20227;-74
2022/01/11 01:35:31;;;;;;;54.70;28.13;;;;;;;-1.63;79.11;98671.19;6241354;28;20239;-74
2022/01/11 01:38:33;;;;;;;49.37;26.73;;;;;;;-1.66;78.79;98676.41;6242167;28;20219;-74
2022/01/11 01:41:35;;;;;;;46.90;27.03;;;;;;;-1.68;78.67;98677.28;6251934;28;20234;-74
2022/01/11 01:44:41;;;;;;;52.20;28.20;;;;;;;-1.68;78.83;98679.88;6251922;28;20223;-73
2022/01/11 01:47:43;;;;;;;51.53;27.13;;;;;;;-1.72;78.68;98679.09;6234657;28;20224;-74
2022/01/11 01:50:47;;;;;;;49.60;26.57;;;;;;;-1.74;78.73;98687.75;6233445;28;20227;-74
2022/01/11 01:53:51;;;;;;;53.13;28.43;;;;;;;-1.77;78.80;98682.59;6252644;28;20365;-73
2022/01/11 01:56:53;;;;;;;53.50;27.90;;;;;;;-1.81;78.50;98680.97;6251626;28;20223;-74
2022/01/11 01:59:55;;;;;;;55.10;29.60;;;;;;;-1.86;78.71;98683.59;6252668;28;20740;-73
2022/01/11 02:03:06;;;;;;;56.07;29.93;;;;;;;-1.90;78.78;98689.72;6252395;28;20712;-74
2022/01/11 02:06:12;;;;;;;53.17;27.90;;;;;;;-1.94;78.62;98696.66;6235797;28;20227;-73
2022/01/11 02:09:15;;;;;;;52.70;28.67;;;;;;;-1.96;78.84;98692.38;6254053;28;20219;-74
2022/01/11 02:12:18;;;;;;;50.33;27.23;;;;;;;-2.02;78.34;98697.66;6253687;28;20675;-74
2022/01/11 02:15:20;;;;;;;53.73;26.93;;;;;;;-2.04;78.63;98701.97;6249537;28;20239;-73
2022/01/11 02:18:25;;;;;;;47.40;26.43;;;;;;;-2.06;78.55;98701.13;6230132;28;20718;-74
2022/01/11 02:21:34;;;;;;;54.37;27.53;;;;;;;-2.05;78.74;98702.84;6235938;28;20238;-74
2022/01/11 02:24:36;;;;;;;50.53;28.10;;;;;;;-2.09;78.52;98702.03;6251363;28;20648;-74
2022/01/11 02:27:40;;;;;;;58.37;28.50;;;;;;;-2.08;77.91;98705.47;6252400;28;20241;-73
2022/01/11 02:39:51;;;;;;;49.27;26.00;;;;;;;-2.11;78.66;98713.28;6219443;28;20219;-74
2022/01/11 02:43:11;;;;;;;48.87;27.83;;;;;;;-2.11;78.35;98716.72;6253807;28;20251;-74
2022/01/11 02:46:16;;;;;;;50.93;27.07;;;;;;;-2.13;78.61;98721.06;6227842;28;20237;-73
2022/01/11 02:49:18;;;;;;;49.73;26.20;;;;;;;-2.13;78.15;98722.78;6231667;28;20228;-74
2022/01/11 02:52:24;;;;;;;48.60;26.47;;;;;;;-2.15;78.06;98725.38;6202251;28;20244;-74
2022/01/11 02:55:40;;;;;;;50.03;26.53;;;;;;;-2.12;78.80;98729.66;6249533;28;20255;-74
2022/01/11 02:58:42;;;;;;;48.90;25.90;;;;;;;-2.14;78.69;98724.50;6251283;28;20235;-74
2022/01/11 03:01:45;;;;;;;50.77;27.53;;;;;;;-2.15;78.75;98727.13;6252707;28;20250;-74
2022/01/11 03:04:48;;;;;;;57.23;28.13;;;;;;;-2.16;78.77;98718.50;6253783;28;20227;-73
2022/01/11 03:07:50;;;;;;;54.33;27.40;;;;;;;-2.18;78.32;98721.97;6252861;28;20329;-74
2022/01/11 03:10:56;;;;;;;52.17;25.90;;;;;;;-2.23;78.41;98714.28;6252920;28;20275;-74
2022/01/11 03:14:01;;;;;;;49.97;26.43;;;;;;;-2.27;78.23;98720.38;6252233;28;20745;-74
2022/01/11 03:17:05;;;;;;;53.50;26.80;;;;;;;-2.29;78.41;98722.97;6219170;28;20232;-74
2022/01/11 03:20:08;;;;;;;52.43;27.63;;;;;;;-2.35;77.54;98715.28;6251858;28;20219;-74
2022/01/11 03:23:12;;;;;;;50.13;25.97;;;;;;;-2.36;77.95;98717.91;6234318;28;20330;-74
2022/01/11 03:26:14;;;;;;;47.03;25.37;;;;;;;-2.40;77.74;98705.91;6252349;28;20238;-73
2022/01/11 03:29:16;;;;;;;46.73;25.83;;;;;;;-2.40;77.60;98714.50;6251484;28;20234;-74
2022/01/11 03:32:19;;;;;;;49.53;25.63;;;;;;;-2.48;76.97;98713.72;6252800;28;20237;-74
2022/01/11 03:35:40;;;;;;;46.87;24.40;;;;;;;-2.47;77.29;98718.03;6237227;28;20250;-74
2022/01/11 03:38:43;;;;;;;45.97;25.80;;;;;;;-2.47;77.61;98730.94;6237419;28;20224;-74
2022/01/11 03:41:48;;;;;;;52.33;26.90;;;;;;;-2.48;77.00;98730.97;6235154;28;20242;-74
2022/01/11 03:44:51;;;;;;;52.73;27.63;;;;;;;-2.47;77.74;98738.69;6249523;28;20227;-74
2022/01/11 03:47:56;;;;;;;51.43;27.13;;;;;;;-2.48;77.29;98747.31;6230267;28;20635;-74
2022/01/11 03:50:58;;;;;;;52.63;27.63;;;;;;;-2.49;77.31;98735.28;6226602;28;20216;-74
2022/01/11 03:54:15;;;;;;;51.13;27.97;;;;;;;-2.54;77.25;98733.63;6251167;28;20243;-74
2022/01/11 03:57:36;;;;;;;52.13;26.40;;;;;;;-2.56;77.27;98749.13;6250741;28;20231;-74
2022/01/11 04:00:38;;;;;;;51.50;27.70;;;;;;;-2.54;78.11;98752.56;6251130;28;20227;-73
2022/01/11 04:03:40;;;;;;;58.63;28.23;;;;;;;-2.57;77.84;98741.41;6252334;28;20238;-73
2022/01/11 04:06:43;;;;;;;50.20;27.33;;;;;;;-2.59;77.65;98756.91;6252300;28;20784;-72
2022/01/11 04:09:45;;;;;;;54.40;28.80;;;;;;;-2.60;77.50;98757.81;6251803;28;20231;-74
2022/01/11 04:12:48;;;;;;;51.60;26.80;;;;;;;-2.64;77.43;98756.13;6250492;28;20759;-74
2022/01/11 04:15:50;;;;;;;55.70;28.47;;;;;;;-2.65;76.90;98765.59;6247650;28;20234;-74
2022/01/11 04:18:53;;;;;;;57.50;30.30;;;;;;;-2.66;77.09;98763.03;6235892;28;20714;-74
2022/01/11 04:21:55;;;;;;;56.27;28.33;;;;;;;-2.66;77.54;98763.03;6256064;28;20741;-73
2022/01/11 04:24:57;;;;;;;53.23;28.63;;;;;;;-2.68;77.88;98762.19;6255955;28;20238;-74
2022/01/11 04:28:01;;;;;;;56.63;27.73;;;;;;;-2.69;78.20;98770.81;6256127;28;20242;-73
2022/01/11 04:31:03;;;;;;;53.70;27.80;;;;;;;-2.70;77.91;98769.97;6256113;28;20227;-73
2022/01/11 04:34:07;;;;;;;51.93;26.57;;;;;;;-2.70;77.53;98775.16;6237808;28;20238;-73
2022/01/11 04:37:09;;;;;;;58.47;28.63;;;;;;;-2.69;78.59;98779.41;6237908;28;20235;-74
2022/01/11 04:40:13;;;;;;;49.53;27.67;;;;;;;-2.68;78.42;98782.84;6255924;28;20690;-72
2022/01/11 04:43:19;;;;;;;52.57;26.80;;;;;;;-2.70;78.00;98784.63;6256277;28;20231;-73
2022/01/11 04:46:22;;;;;;;50.37;27.20;;;;;;;-2.72;78.60;98781.19;6243958;28;20369;-73
2022/01/11 04:49:29;;;;;;;54.97;28.77;;;;;;;-2.73;78.63;98776.88;6237653;28;20285;-73
2022/01/11 04:52:31;;;;;;;51.53;26.27;;;;;;;-2.74;78.15;98782.94;6254095;28;20724;-73
2022/01/11 04:55:33;;;;;;;50.23;26.33;;;;;;;-2.73;78.75;98782.91;6258978;28;20590;-74
2022/01/11 04:58:37;;;;;;;52.27;27.30;;;;;;;-2.72;78.33;98788.94;6254397;28;20258;-71
2022/01/11 05:01:40;;;;;;;45.03;24.43;;;;;;;-2.75;78.70;98792.41;6254278;28;20365;-73
2022/01/11 05:04:43;;;;;;;47.63;25.07;;;;;;;-2.75;78.18;98796.72;6253870;28;20231;-74
2022/01/11 05:07:46;;;;;;;49.00;25.27;;;;;;;-2.75;78.47;98797.56;6255111;28;20219;-72
2022/01/11 05:10:49;;;;;;;44.77;25.00;;;;;;;-2.76;78.01;98787.25;6254952;28;20653;-73
2022/01/11 05:13:51;;;;;;;46.43;23.97;;;;;;;-2.82;78.51;98795.91;6253327;28;20242;-74
2022/01/11 05:17:03;;;;;;;49.73;25.77;;;;;;;-2.87;78.27;98800.25;6238732;28;20239;-74
2022/01/11 05:20:07;;;;;;;46.27;24.67;;;;;;;-2.88;78.24;98808.00;6249475;28;20230;-72
2022/01/11 05:23:10;;;;;;;46.83;24.73;;;;;;;-2.88;78.54;98818.34;6255424;28;20246;-73
2022/01/11 05:26:12;;;;;;;49.67;24.37;;;;;;;-2.87;78.98;98812.31;6253739;28;20361;-73
2022/01/11 05:29:14;;;;;;;42.30;24.07;;;;;;;-2.91;78.58;98814.09;6254205;28;20583;-73
2022/01/11 05:32:17;;;;;;;45.53;24.20;;;;;;;-2.92;78.63;98816.66;6254163;28;20698;-74
2022/01/11 05:35:21;;;;;;;41.53;23.20;;;;;;;-2.94;78.78;98824.44;6241032;28;20240;-73
2022/01/11 05:38:23;;;;;;;45.20;23.60;;;;;;;-2.94;78.53;98826.16;6231331;28;20235;-73
2022/01/11 05:41:25;;;;;;;45.33;24.37;;;;;;;-2.97;79.08;98821.84;6254864;28;20657;-74
2022/01/11 05:44:28;;;;;;;50.37;24.23;;;;;;;-3.00;78.96;98835.69;6252616;28;20593;-73
2022/01/11 05:47:30;;;;;;;39.97;22.03;;;;;;;-2.99;78.59;98839.09;6220239;28;20231;-73
2022/01/11 05:50:32;;;;;;;37.83;21.27;;;;;;;-3.02;79.22;98847.72;6245138;28;20618;-73
2022/01/11 05:53:34;;;;;;;43.03;22.70;;;;;;;-3.04;78.86;98853.78;6254408;28;20235;-73
2022/01/11 05:56:36;;;;;;;37.07;21.13;;;;;;;-3.03;78.54;98847.75;6253636;28;20231;-73
2022/01/11 05:59:39;;;;;;;42.60;22.93;;;;;;;-3.00;78.28;98851.16;6253381;28;20265;-73
2022/01/11 06:02:46;;;;;;;40.53;20.60;;;;;;;-3.03;78.13;98856.34;6253538;28;20732;-73
2022/01/11 06:05:59;;;;;;;42.37;22.30;;;;;;;-2.96;78.46;98875.22;6252255;28;20234;-73
2022/01/11 06:09:03;;;;;;;38.93;20.73;;;;;;;-2.94;77.54;98880.38;6252664;28;20222;-74
2022/01/11 06:12:07;;;;;;;37.93;19.83;;;;;;;-2.90;77.85;98875.19;6251997;28;20211;-72
2022/01/11 06:15:11;;;;;;;42.27;21.33;;;;;;;-2.87;78.18;98882.03;6251123;28;20329;-73
2022/01/11 06:18:13;;;;;;;38.57;20.47;;;;;;;-2.84;77.63;98893.22;6245050;28;20223;-73
2022/01/11 06:21:29;;;;;;;41.57;21.53;;;;;;;-2.84;77.83;98892.34;6252515;28;20231;-73
2022/01/11 06:24:31;;;;;;;36.60;20.93;;;;;;;-2.87;77.97;98898.41;6236319;28;20760;-73
2022/01/11 06:27:39;;;;;;;43.03;21.73;;;;;;;-2.88;78.18;98908.72;6235808;28;20247;-73
2022/01/11 06:30:48;;;;;;;38.53;20.83;;;;;;;-2.87;78.91;98913.03;6252719;28;20289;-73
2022/01/11 06:33:50;;;;;;;43.37;21.07;;;;;;;-2.85;77.89;98919.06;6235563;28;20292;-73
2022/01/11 06:36:54;;;;;;;38.57;20.73;;;;;;;-2.82;77.09;98924.19;6206121;28;20231;-73
2022/01/11 06:39:56;;;;;;;38.60;21.13;;;;;;;-2.78;77.89;98928.47;6253485;28;20254;-73
2022/01/11 06:42:59;;;;;;;39.50;20.83;;;;;;;-2.83;77.33;98931.09;6250012;28;20243;-73
2022/01/11 06:46:02;;;;;;;42.67;22.87;;;;;;;-2.84;77.45;98934.53;6243698;28;20247;-73
2022/01/11 06:49:04;;;;;;;42.87;21.13;;;;;;;-2.84;77.76;98942.28;6226557;28;20231;-74
2022/01/11 06:52:07;;;;;;;41.40;21.67;;;;;;;-2.83;77.70;98954.34;6234932;28;20230;-73
2022/01/11 06:55:14;;;;;;;40.00;22.63;;;;;;;-2.83;78.01;98951.75;6253274;28;20242;-73
2022/01/11 06:58:17;;;;;;;35.43;19.67;;;;;;;-2.81;78.01;98964.66;6251091;28;20323;-72
2022/01/11 07:01:19;;;;;;;42.33;22.33;;;;;;;-2.82;77.89;98973.28;6252468;28;20229;-73
2022/01/11 07:04:22;;;;;;;41.70;21.60;;;;;;;-2.81;77.88;98975.84;6252481;28;20234;-72
2022/01/11 07:07:29;;;;;;;38.90;20.53;;;;;;;-2.80;77.52;98977.56;6252295;28;20369;-75
2022/01/11 07:10:31;;;;;;;39.23;19.83;;;;;;;-2.81;77.42;98983.59;6234674;28;20280;-73
2022/01/11 07:13:33;;;;;;;39.37;19.80;;;;;;;-2.82;76.91;98984.47;6252812;28;20235;-73
2022/01/11 07:16:36;;;;;;;39.93;20.30;;;;;;;-2.80;77.10;98989.63;6238471;28;20231;-73
2022/01/11 07:19:38;;;;;;;38.67;21.20;;;;;;;-2.82;76.93;98979.31;6238492;28;20366;-72
2022/01/11 07:22:45;;;;;;;36.00;18.07;;;;;;;-2.85;77.31;98978.44;6251110;28;20231;-73
2022/01/11 07:25:48;;;;;;;41.27;21.07;;;;;;;-2.89;76.69;98982.75;6251903;28;20222;-73
2022/01/11 07:28:51;;;;;;;38.17;19.43;;;;;;;-2.90;76.76;98998.31;6250760;28;20750;-73
2022/01/11 07:31:54;;;;;;;40.40;20.67;;;;;;;-2.95;76.26;98992.28;6250622;28;20238;-73
2022/01/11 07:34:58;;;;;;;43.77;21.67;;;;;;;-2.98;76.42;99000.91;6240731;28;20317;-73
2022/01/11 07:38:00;;;;;;;37.50;20.10;;;;;;;-2.96;76.28;99006.91;6246733;28;20304;-71
2022/01/11 07:41:05;;;;;;;36.47;20.80;;;;;;;-2.93;76.48;99013.81;6250269;28;20317;-73
2022/01/11 07:44:17;;;;;;;40.87;20.43;;;;;;;-2.93;76.47;99012.06;6250505;28;20223;-75
2022/01/11 07:47:21;;;;;;;36.40;19.97;;;;;;;-2.95;76.94;99006.06;6226015;28;20330;-73
2022/01/11 07:50:23;;;;;;;39.23;20.47;;;;;;;-2.96;77.30;99030.16;6236134;28;20349;-73
2022/01/11 07:53:26;;;;;;;36.30;19.73;;;;;;;-2.94;77.24;99025.00;6252443;28;20237;-73
2022/01/11 07:56:33;;;;;;;36.67;19.17;;;;;;;-2.93;76.64;99032.75;6255594;28;20223;-73
2022/01/11 07:59:36;;;;;;;40.00;20.37;;;;;;;-2.89;77.16;99028.41;6254234;28;20333;-73
2022/01/11 08:02:57;;;;;;;34.20;19.40;;;;;;;-2.89;76.21;99039.59;6254939;28;20235;-73
2022/01/11 08:06:22;;;;;;;37.20;20.40;;;;;;;-2.86;76.31;99037.00;6255047;28;20260;-73
2022/01/11 08:09:31;;;;;;;39.93;19.90;;;;;;;-2.88;76.57;99036.13;6254339;28;20302;-73
2022/01/11 08:12:34;;;;;;;34.60;19.17;;;;;;;-2.93;75.78;99032.75;6255875;28;20287;-73
2022/01/11 08:15:37;;;;;;;35.20;19.40;;;;;;;-2.93;76.08;99027.56;6250272;28;20223;-73
2022/01/11 08:18:40;;;;;;;32.43;18.60;;;;;;;-2.95;76.21;99033.59;6245076;28;20338;-72
2022/01/11 08:21:42;;;;;;;37.87;20.10;;;;;;;-2.94;76.58;99032.75;6254940;28;20307;-73
2022/01/11 08:24:46;;;;;;;36.93;19.03;;;;;;;-2.98;76.39;99040.50;6255000;28;20702;-73
2022/01/11 08:27:48;;;;;;;36.40;17.53;;;;;;;-2.99;76.24;99040.50;6256104;28;20241;-73
2022/01/11 08:30:51;;;;;;;37.47;19.13;;;;;;;-2.99;75.57;99036.19;6255716;28;20794;-73
2022/01/11 08:33:53;;;;;;;37.80;19.30;;;;;;;-3.03;75.56;99031.06;6237376;28;20237;-73
2022/01/11 08:36:56;;;;;;;36.23;19.03;;;;;;;-3.06;76.23;99033.66;6254535;28;20296;-73
2022/01/11 08:39:59;;;;;;;36.33;18.47;;;;;;;-3.07;75.82;99035.38;6255675;28;20568;-73
2022/01/11 08:43:04;;;;;;;32.90;17.60;;;;;;;-3.04;75.31;99035.38;6220360;28;20376;-72
2022/01/11 08:46:09;;;;;;;32.50;17.03;;;;;;;-3.03;75.73;99033.66;6235351;28;20239;-72
2022/01/11 08:49:30;;;;;;;35.63;17.00;;;;;;;-3.04;75.49;99035.38;6230803;28;20232;-73
2022/01/11 08:52:33;;;;;;;30.47;16.03;;;;;;;-3.00;74.54;99038.81;6242529;28;20595;-72
2022/01/11 08:55:37;;;;;;;34.97;17.47;;;;;;;-2.92;74.96;99052.53;6255154;28;20238;-73
2022/01/11 08:58:38;;;;;;;32.30;16.27;;;;;;;-2.76;74.93;99051.59;6237437;28;20696;-73
2022/01/11 09:01:41;;;;;;;30.97;15.57;;;;;;;-2.64;74.04;99046.34;6252823;28;20239;-73
2022/01/11 09:04:46;;;;;;;32.10;16.27;;;;;;;-2.50;73.93;99043.69;6259137;28;20235;-73
2022/01/11 09:07:53;;;;;;;29.07;14.40;;;;;;;-2.47;72.91;99054.00;6255344;28;20238;-73
2022/01/11 09:10:55;;;;;;;28.93;15.40;;;;;;;-2.46;72.78;99060.88;6253193;28;20296;-73
2022/01/11 09:13:57;;;;;;;31.47;15.63;;;;;;;-2.45;72.05;99064.31;6252667;28;20241;-73
2022/01/11 09:17:03;;;;;;;31.33;15.20;;;;;;;-2.42;72.07;99057.41;6253093;28;20231;-73
2022/01/11 09:20:11;;;;;;;30.53;15.10;;;;;;;-2.45;71.55;99057.44;6252483;28;20237;-73
2022/01/11 09:23:13;;;;;;;27.53;14.43;;;;;;;-2.48;71.79;99049.69;6254123;28;20268;-73
2022/01/11 09:26:18;;;;;;;29.87;15.10;;;;;;;-2.55;71.72;99042.84;6251309;28;20227;-73
2022/01/11 09:29:27;;;;;;;26.53;14.40;;;;;;;-2.60;72.70;99047.22;6253917;28;20589;-73
2022/01/11 09:32:30;;;;;;;31.87;15.70;;;;;;;-2.58;72.68;99057.50;6252568;28;20241;-73
2022/01/11 09:35:32;;;;;;;32.63;15.70;;;;;;;-2.60;73.02;99049.78;6241957;28;20255;-73
2022/01/11 09:38:53;;;;;;;31.03;15.13;;;;;;;-2.67;71.61;99061.00;6229138;28;20232;-73
2022/01/11 09:41:58;;;;;;;28.80;15.10;;;;;;;-2.67;71.97;99071.34;6249294;28;20301;-73
2022/01/11 09:45:04;;;;;;;28.50;15.37;;;;;;;-2.64;71.94;99073.91;6252307;28;20654;-74
2022/01/11 09:48:11;;;;;;;28.50;15.83;;;;;;;-2.52;71.79;99080.75;6225466;28;20307;-73
2022/01/11 09:51:17;;;;;;;32.33;16.20;;;;;;;-2.41;71.93;99090.16;6241618;28;20591;-73
2022/01/11 09:54:22;;;;;;;29.93;14.77;;;;;;;-2.34;71.42;99090.97;6253929;28;20326;-72
2022/01/11 09:57:24;;;;;;;28.03;14.60;;;;;;;-2.30;71.94;99093.53;6251714;28;20718;-73
2022/01/11 10:00:42;;;;;;;28.40;14.40;;;;;;;-2.30;71.00;99093.53;6252840;28;20292;-73
2022/01/11 10:04:11;;;;;;;31.83;15.10;;;;;;;-2.36;69.95;99077.19;6251651;28;20227;-73
2022/01/11 10:07:40;;;;;;;27.43;13.37;;;;;;;-2.31;69.76;99078.91;6251957;28;20223;-73
2022/01/11 10:10:45;;;;;;;28.40;13.73;;;;;;;-2.23;70.08;99073.66;6253084;28;20234;-74
2022/01/11 10:13:51;;;;;;;25.80;12.87;;;;;;;-2.10;69.95;99049.44;6252560;28;20380;-73
2022/01/11 10:17:10;;;;;;;27.27;13.90;;;;;;;-2.11;69.78;99050.31;6236299;28;20308;-73
2022/01/11 10:20:21;;;;;;;24.37;12.17;;;;;;;-2.16;70.13;99039.13;6250774;28;20227;-73
2022/01/11 10:23:34;;;;;;;21.47;12.20;;;;;;;-2.12;70.20;99032.22;6236959;28;20602;-73
2022/01/11 10:26:43;;;;;;;26.50;13.37;;;;;;;-2.23;70.06;99019.38;6251641;28;20575;-73
2022/01/11 10:29:58;;;;;;;24.97;12.73;;;;;;;-2.36;70.71;99017.72;6253219;28;20241;-73
2022/01/11 10:33:07;;;;;;;25.07;12.70;;;;;;;-2.43;70.94;99016.94;6251337;28;20622;-73
2022/01/11 10:36:13;;;;;;;23.03;11.80;;;;;;;-2.48;70.76;99017.81;6233250;28;20306;-71
2022/01/11 10:39:27;;;;;;;24.53;12.07;;;;;;;-2.56;71.34;99011.84;6238019;28;20770;-73
2022/01/11 10:42:34;;;;;;;27.23;13.03;;;;;;;-2.63;71.77;98995.53;6251237;28;20711;-74
2022/01/11 10:45:44;;;;;;;25.37;12.73;;;;;;;-2.66;71.38;98999.00;6246364;28;20239;-73
2022/01/11 10:48:47;;;;;;;25.93;14.17;;;;;;;-2.62;71.08;99010.19;6225140;28;20736;-73
2022/01/11 10:52:17;;;;;;;26.70;13.20;;;;;;;-2.65;71.08;99020.53;6229152;28;20692;-74
2022/01/11 10:55:25;;;;;;;29.43;14.10;;;;;;;-2.67;71.36;99023.09;6251706;28;20238;-73
2022/01/11 10:58:32;;;;;;;27.37;13.87;;;;;;;-2.63;71.75;99029.13;6252397;28;20235;-73
2022/01/11 11:01:35;;;;;;;27.43;14.27;;;;;;;-2.56;71.90;99025.63;6251400;28;20231;-73
2022/01/11 11:04:39;;;;;;;32.80;14.00;;;;;;;-2.43;71.30;99037.63;6234639;28;20596;-73
2022/01/11 11:08:03;;;;;;;25.07;13.40;;;;;;;-2.29;70.60;99037.50;6251678;28;20227;-73
2022/01/11 11:11:11;;;;;;;27.57;14.23;;;;;;;-2.14;70.33;99058.09;6251582;28;20232;-73
2022/01/11 11:14:16;;;;;;;26.73;14.43;;;;;;;-2.02;70.59;99058.00;6251033;28;20524;-73
2022/01/11 11:17:38;;;;;;;27.93;14.30;;;;;;;-1.96;69.77;99057.94;6246918;28;20231;-73
2022/01/11 11:21:22;;;;;;;30.20;14.77;;;;;;;-1.82;70.29;99054.38;6252902;28;20346;-71
2022/01/11 11:24:24;;;;;;;26.87;14.63;;;;;;;-1.85;68.90;99044.91;6252478;28;20231;-72
2022/01/11 11:27:28;;;;;;;23.93;13.50;;;;;;;-1.80;68.72;99050.06;6253358;28;20219;-73
2022/01/11 11:30:30;;;;;;;31.40;14.63;;;;;;;-1.83;68.59;99042.31;6258313;28;20219;-74
2022/01/11 11:33:37;;;;;;;30.57;15.80;;;;;;;-1.77;68.86;99052.59;6255364;28;20226;-74
2022/01/11 11:36:41;;;;;;;24.87;13.63;;;;;;;-1.56;68.61;99048.06;6235740;28;20239;-73
2022/01/11 11:39:44;;;;;;;29.30;14.90;;;;;;;-1.44;68.24;99044.50;6231599;28;20699;-73
2022/01/11 11:42:53;;;;;;;26.30;14.70;;;;;;;-1.28;68.41;99055.53;6256091;28;20242;-73
2022/01/11 11:45:55;;;;;;;30.13;15.03;;;;;;;-1.25;67.79;99050.34;6249764;28;20703;-73
2022/01/11 11:48:57;;;;;;;29.40;14.90;;;;;;;-1.06;68.38;99040.63;6232899;28;20243;-73
2022/01/11 11:52:15;;;;;;;27.47;15.03;;;;;;;-0.93;67.82;99049.97;6245018;28;20246;-72
2022/01/11 11:55:29;;;;;;;28.07;14.73;;;;;;;-0.95;67.01;99036.16;6255343;28;20227;-73
2022/01/11 11:58:40;;;;;;;27.00;14.90;;;;;;;-0.99;67.27;99044.84;6256877;28;20714;-74
2022/01/11 12:01:45;;;;;;;29.10;15.40;;;;;;;-1.24;68.67;99028.75;6254683;28;20219;-73
2022/01/11 12:04:52;;;;;;;31.60;15.23;;;;;;;-1.46;68.38;99024.69;6256753;28;20227;-73
2022/01/11 12:07:55;;;;;;;30.53;16.07;;;;;;;-1.54;69.25;99032.53;6256804;28;20227;-74
2022/01/11 12:11:10;;;;;;;31.10;16.23;;;;;;;-1.64;68.70;99024.00;6255106;28;20238;-74
2022/01/11 12:14:30;;;;;;;30.03;15.57;;;;;;;-1.75;69.56;99027.56;6255455;28;20250;-73
2022/01/11 12:17:32;;;;;;;26.73;14.73;;;;;;;-1.84;69.64;99025.94;6225762;28;20239;-72
2022/01/11 12:20:46;;;;;;;28.60;14.97;;;;;;;-1.83;69.26;99042.31;6236069;28;20226;-73
2022/01/11 12:23:57;;;;;;;29.30;14.97;;;;;;;-1.76;69.61;99047.41;6254658;28;20227;-73
2022/01/11 12:26:59;;;;;;;29.77;14.77;;;;;;;-1.83;69.19;99053.50;6254367;28;20718;-72
2022/01/11 12:30:07;;;;;;;25.73;14.77;;;;;;;-1.74;69.00;99040.50;6255836;28;20231;-72
2022/01/11 12:33:18;;;;;;;24.97;14.10;;;;;;;-1.61;68.86;99052.44;6253706;28;20227;-73
2022/01/11 12:36:21;;;;;;;27.27;14.50;;;;;;;-1.51;67.85;99058.41;6236016;28;21782;-73
2022/01/11 12:39:25;;;;;;;25.27;13.70;;;;;;;-1.40;68.62;99060.88;6236005;28;20226;-73
2022/01/11 12:42:28;;;;;;;27.77;14.63;;;;;;;-1.41;68.29;99061.75;6256412;28;20231;-74
2022/01/11 12:45:49;;;;;;;27.93;14.97;;;;;;;-1.32;68.25;99052.16;6252710;28;20242;-73
2022/01/11 12:48:53;;;;;;;27.97;14.30;;;;;;;-1.31;67.92;99042.66;6239822;28;20704;-73
2022/01/11 12:52:08;;;;;;;28.13;13.90;;;;;;;-1.34;68.59;99038.34;6211931;28;20692;-74
2022/01/11 12:55:11;;;;;;;24.23;14.03;;;;;;;-1.29;68.54;99036.56;6252630;28;20628;-74
2022/01/11 12:58:17;;;;;;;24.73;13.73;;;;;;;-1.28;68.42;99032.22;6255113;28;20234;-74
2022/01/11 13:01:20;;;;;;;27.13;14.57;;;;;;;-1.32;68.38;99035.75;6254550;28;20739;-73
2022/01/11 13:04:48;;;;;;;26.27;14.47;;;;;;;-1.42;69.13;99039.31;6255071;28;20238;-73
2022/01/11 13:07:54;;;;;;;28.97;14.07;;;;;;;-1.38;68.86;99039.25;6254929;28;20341;-73
2022/01/11 13:10:56;;;;;;;28.07;15.60;;;;;;;-1.43;69.04;99038.47;6255058;28;20238;-73
2022/01/11 13:17:29;;;;;;;25.97;14.20;;;;;;;-1.50;68.89;99053.16;6242891;28;20249;-73
2022/01/11 13:20:32;;;;;;;28.67;14.40;;;;;;;-1.51;69.02;99056.66;6254142;28;20226;-73
2022/01/11 13:23:45;;;;;;;28.63;15.00;;;;;;;-1.61;69.17;99049.88;6253203;28;20265;-74
2022/01/11 13:26:49;;;;;;;28.90;14.47;;;;;;;-1.68;69.25;99060.25;6254853;28;20231;-73
2022/01/11 13:29:51;;;;;;;24.20;13.57;;;;;;;-1.75;69.39;99064.66;6253071;28;20234;-73
2022/01/11 13:32:53;;;;;;;27.60;14.43;;;;;;;-1.84;68.65;99063.88;6255143;28;20238;-73
2022/01/11 13:35:58;;;;;;;23.90;13.87;;;;;;;-1.92;68.72;99064.81;6237716;28;20700;-73
2022/01/11 13:39:14;;;;;;;29.03;13.60;;;;;;;-1.95;69.07;99067.41;6230795;28;20693;-73
2022/01/11 13:42:15;;;;;;;27.90;14.67;;;;;;;-1.98;69.59;99063.97;6244676;28;20773;-73
2022/01/11 13:45:17;;;;;;;26.13;14.13;;;;;;;-2.08;69.71;99067.50;6251158;28;20234;-72
2022/01/11 13:48:21;;;;;;;25.77;13.90;;;;;;;-2.12;69.55;99077.03;6229755;28;20228;-73
2022/01/11 13:51:31;;;;;;;29.70;14.57;;;;;;;-2.14;70.10;99071.00;6233546;28;20237;-73
2022/01/11 13:54:39;;;;;;;25.87;14.07;;;;;;;-2.13;69.98;99080.50;6252745;28;20694;-73
2022/01/11 13:57:45;;;;;;;31.27;14.93;;;;;;;-2.14;70.22;99070.16;6253748;28;20259;-73
2022/01/11 14:00:47;;;;;;;21.83;13.17;;;;;;;-2.14;69.78;99072.72;6253201;28;20698;-73
2022/01/11 14:03:50;;;;;;;22.30;12.17;;;;;;;-2.15;70.18;99068.44;6253187;28;20303;-73
2022/01/11 14:06:55;;;;;;;25.03;13.10;;;;;;;-2.16;69.74;99062.41;6253943;28;20223;-73
2022/01/11 14:09:58;;;;;;;28.57;14.30;;;;;;;-2.12;69.42;99073.59;6252177;28;20215;-73
2022/01/11 14:13:16;;;;;;;26.13;13.53;;;;;;;-2.10;69.17;99077.88;6253711;28;20247;-72
2022/01/11 14:16:19;;;;;;;26.67;13.67;;;;;;;-2.08;69.28;99091.63;6243516;28;20335;-73
2022/01/11 14:19:23;;;;;;;30.70;14.87;;;;;;;-2.09;68.88;99096.81;6237046;28;20732;-73
2022/01/11 14:22:39;;;;;;;24.60;13.43;;;;;;;-2.05;68.94;99089.03;6254184;28;20227;-73
2022/01/11 14:25:48;;;;;;;25.63;12.83;;;;;;;-2.00;69.00;99087.28;6251846;28;20234;-73